sensor_id;sensor_type;location;lat;lon;timestamp;temperature;humidity
17178;DHT22;8704;52.006;4.374;2022-07-06T00:00:29;14.60;1.00
17178;DHT22;8704;52.006;4.374;2022-07-06T00:02:56;14.60;1.00
17178;DHT22;8704;52.006;4.374;2022-07-06T00:05:25;14.60;1.00
17178;DHT22;8704;52.006;4.374;2022-07-06T00:07:53;14.50;1.00
17178;DHT22;8704;52.006;4.374;2022-07-06T00:10:21;14.50;1.00
17178;DHT22;8704;52.006;4.374;2022-07-06T00:12:48;14.40;1.00
17178;DHT22;8704;52.006;4.374;2022-07-06T00:15:18;14.40;1.00
17178;DHT22;8704;52.006;4.374;2022-07-06T00:17:46;14.40;1.00
17178;DHT22;8704;52.006;4.374;2022-07-06T00:20:14;14.30;1.00
17178;DHT22;8704;52.006;4.374;2022-07-06T00:22:42;14.30;1.00
17178;DHT22;8704;52.006;4.374;2022-07-06T00:25:10;14.30;1.00
17178;DHT22;8704;52.006;4.374;2022-07-06T00:27:38;14.20;1.00
17178;DHT22;8704;52.006;4.374;2022-07-06T00:30:07;14.20;1.00
17178;DHT22;8704;52.006;4.374;2022-07-06T00:32:36;14.20;1.00
17178;DHT22;8704;52.006;4.374;2022-07-06T00:35:05;14.10;1.00
17178;DHT22;8704;52.006;4.374;2022-07-06T00:37:33;14.10;1.00
17178;DHT22;8704;52.006;4.374;2022-07-06T00:40:02;14.10;1.00
17178;DHT22;8704;52.006;4.374;2022-07-06T00:42:30;14.10;1.00
17178;DHT22;8704;52.006;4.374;2022-07-06T00:45:06;14.00;6.00
17178;DHT22;8704;52.006;4.374;2022-07-06T00:47:36;14.00;1.00
17178;DHT22;8704;52.006;4.374;2022-07-06T00:50:05;13.90;1.00
17178;DHT22;8704;52.006;4.374;2022-07-06T00:52:47;13.90;1.00
17178;DHT22;8704;52.006;4.374;2022-07-06T00:55:18;13.90;1.00
17178;DHT22;8704;52.006;4.374;2022-07-06T00:57:47;13.90;9.20
17178;DHT22;8704;52.006;4.374;2022-07-06T01:00:17;13.80;4.20
17178;DHT22;8704;52.006;4.374;2022-07-06T01:02:46;13.80;1.00
17178;DHT22;8704;52.006;4.374;2022-07-06T01:05:15;13.70;1.00
17178;DHT22;8704;52.006;4.374;2022-07-06T01:07:46;13.70;1.00
17178;DHT22;8704;52.006;4.374;2022-07-06T01:10:15;13.70;1.00
17178;DHT22;8704;52.006;4.374;2022-07-06T01:12:44;13.70;1.00
17178;DHT22;8704;52.006;4.374;2022-07-06T01:15:14;13.60;3.00
17178;DHT22;8704;52.006;4.374;2022-07-06T01:17:43;13.60;4.80
17178;DHT22;8704;52.006;4.374;2022-07-06T01:20:13;13.60;1.00
17178;DHT22;8704;52.006;4.374;2022-07-06T01:22:42;13.60;1.00
17178;DHT22;8704;52.006;4.374;2022-07-06T01:25:10;13.50;1.00
17178;DHT22;8704;52.006;4.374;2022-07-06T01:27:39;13.50;1.00
17178;DHT22;8704;52.006;4.374;2022-07-06T01:30:09;13.50;1.00
17178;DHT22;8704;52.006;4.374;2022-07-06T01:32:38;13.50;1.00
17178;DHT22;8704;52.006;4.374;2022-07-06T01:35:08;13.40;1.00
17178;DHT22;8704;52.006;4.374;2022-07-06T01:37:38;13.40;8.30
17178;DHT22;8704;52.006;4.374;2022-07-06T01:40:08;13.40;1.00
17178;DHT22;8704;52.006;4.374;2022-07-06T01:42:37;13.40;1.00
17178;DHT22;8704;52.006;4.374;2022-07-06T01:45:07;13.30;1.00
17178;DHT22;8704;52.006;4.374;2022-07-06T01:47:35;13.30;1.00
17178;DHT22;8704;52.006;4.374;2022-07-06T01:50:05;13.30;1.00
17178;DHT22;8704;52.006;4.374;2022-07-06T01:52:34;13.20;1.00
17178;DHT22;8704;52.006;4.374;2022-07-06T01:55:04;13.30;1.00
17178;DHT22;8704;52.006;4.374;2022-07-06T01:57:32;13.20;1.00
17178;DHT22;8704;52.006;4.374;2022-07-06T02:00:00;13.20;34.00
17178;DHT22;8704;52.006;4.374;2022-07-06T02:02:28;13.20;13.10
17178;DHT22;8704;52.006;4.374;2022-07-06T02:04:56;13.10;65.60
17178;DHT22;8704;52.006;4.374;2022-07-06T02:07:24;13.10;13.40
17178;DHT22;8704;52.006;4.374;2022-07-06T02:09:52;13.10;76.10
17178;DHT22;8704;52.006;4.374;2022-07-06T02:12:21;13.00;93.70
17178;DHT22;8704;52.006;4.374;2022-07-06T02:14:49;13.10;90.20
17178;DHT22;8704;52.006;4.374;2022-07-06T02:17:17;13.00;73.10
17178;DHT22;8704;52.006;4.374;2022-07-06T02:19:45;13.00;48.10
17178;DHT22;8704;52.006;4.374;2022-07-06T02:22:13;13.00;38.00
17178;DHT22;8704;52.006;4.374;2022-07-06T02:24:41;12.90;99.90
17178;DHT22;8704;52.006;4.374;2022-07-06T02:27:09;12.90;99.90
17178;DHT22;8704;52.006;4.374;2022-07-06T02:29:38;12.90;99.90
17178;DHT22;8704;52.006;4.374;2022-07-06T02:32:07;12.90;97.50
17178;DHT22;8704;52.006;4.374;2022-07-06T02:34:35;12.80;99.90
17178;DHT22;8704;52.006;4.374;2022-07-06T02:37:03;12.90;99.90
17178;DHT22;8704;52.006;4.374;2022-07-06T02:39:31;12.80;75.70
17178;DHT22;8704;52.006;4.374;2022-07-06T02:41:59;12.80;76.80
17178;DHT22;8704;52.006;4.374;2022-07-06T02:44:27;12.80;99.90
17178;DHT22;8704;52.006;4.374;2022-07-06T02:46:56;12.80;99.90
17178;DHT22;8704;52.006;4.374;2022-07-06T02:49:24;12.80;99.90
17178;DHT22;8704;52.006;4.374;2022-07-06T02:51:52;12.70;99.90
17178;DHT22;8704;52.006;4.374;2022-07-06T02:54:20;12.70;99.90
17178;DHT22;8704;52.006;4.374;2022-07-06T02:56:48;12.70;99.90
17178;DHT22;8704;52.006;4.374;2022-07-06T02:59:19;12.70;99.90
17178;DHT22;8704;52.006;4.374;2022-07-06T03:01:47;12.60;99.90
17178;DHT22;8704;52.006;4.374;2022-07-06T03:04:16;12.60;99.90
17178;DHT22;8704;52.006;4.374;2022-07-06T03:06:44;12.70;99.90
17178;DHT22;8704;52.006;4.374;2022-07-06T03:09:12;12.60;99.90
17178;DHT22;8704;52.006;4.374;2022-07-06T03:11:40;12.60;99.90
17178;DHT22;8704;52.006;4.374;2022-07-06T03:14:08;12.60;99.90
17178;DHT22;8704;52.006;4.374;2022-07-06T03:16:36;12.50;99.90
17178;DHT22;8704;52.006;4.374;2022-07-06T03:19:03;12.60;99.90
17178;DHT22;8704;52.006;4.374;2022-07-06T03:21:33;12.50;99.90
17178;DHT22;8704;52.006;4.374;2022-07-06T03:24:01;12.50;99.90
17178;DHT22;8704;52.006;4.374;2022-07-06T03:26:29;12.50;99.90
17178;DHT22;8704;52.006;4.374;2022-07-06T03:28:57;12.50;99.90
17178;DHT22;8704;52.006;4.374;2022-07-06T03:31:25;12.50;99.90
17178;DHT22;8704;52.006;4.374;2022-07-06T03:33:53;12.50;99.90
17178;DHT22;8704;52.006;4.374;2022-07-06T03:36:21;12.50;99.90
17178;DHT22;8704;52.006;4.374;2022-07-06T03:38:50;12.50;99.90
17178;DHT22;8704;52.006;4.374;2022-07-06T03:41:18;12.50;99.90
17178;DHT22;8704;52.006;4.374;2022-07-06T03:43:46;12.50;99.90
17178;DHT22;8704;52.006;4.374;2022-07-06T03:46:14;12.50;99.90
17178;DHT22;8704;52.006;4.374;2022-07-06T03:48:42;12.40;99.90
17178;DHT22;8704;52.006;4.374;2022-07-06T03:51:09;12.40;99.90
17178;DHT22;8704;52.006;4.374;2022-07-06T03:53:38;12.40;99.90
17178;DHT22;8704;52.006;4.374;2022-07-06T03:56:07;12.40;99.90
17178;DHT22;8704;52.006;4.374;2022-07-06T03:58:53;12.40;99.90
17178;DHT22;8704;52.006;4.374;2022-07-06T04:01:21;12.40;99.90
17178;DHT22;8704;52.006;4.374;2022-07-06T04:03:49;12.40;99.90
17178;DHT22;8704;52.006;4.374;2022-07-06T04:06:17;12.40;99.90
17178;DHT22;8704;52.006;4.374;2022-07-06T04:08:45;12.40;99.90
17178;DHT22;8704;52.006;4.374;2022-07-06T04:11:15;12.40;99.90
17178;DHT22;8704;52.006;4.374;2022-07-06T04:13:43;12.40;99.90
17178;DHT22;8704;52.006;4.374;2022-07-06T04:16:11;12.50;99.90
17178;DHT22;8704;52.006;4.374;2022-07-06T04:18:39;12.40;99.90
17178;DHT22;8704;52.006;4.374;2022-07-06T04:21:07;12.50;99.90
17178;DHT22;8704;52.006;4.374;2022-07-06T04:23:35;12.50;99.90
17178;DHT22;8704;52.006;4.374;2022-07-06T04:26:03;12.50;99.90
17178;DHT22;8704;52.006;4.374;2022-07-06T04:28:32;12.50;99.90
17178;DHT22;8704;52.006;4.374;2022-07-06T04:31:00;12.50;99.90
17178;DHT22;8704;52.006;4.374;2022-07-06T04:33:28;12.60;99.90
17178;DHT22;8704;52.006;4.374;2022-07-06T04:35:56;12.60;99.90
17178;DHT22;8704;52.006;4.374;2022-07-06T04:38:24;12.60;99.90
17178;DHT22;8704;52.006;4.374;2022-07-06T04:40:52;12.60;99.90
17178;DHT22;8704;52.006;4.374;2022-07-06T04:43:20;12.60;99.90
17178;DHT22;8704;52.006;4.374;2022-07-06T04:45:49;12.60;99.90
17178;DHT22;8704;52.006;4.374;2022-07-06T04:48:17;12.60;99.90
17178;DHT22;8704;52.006;4.374;2022-07-06T04:50:46;12.60;99.90
17178;DHT22;8704;52.006;4.374;2022-07-06T04:53:13;12.70;99.90
17178;DHT22;8704;52.006;4.374;2022-07-06T04:55:41;12.70;99.90
17178;DHT22;8704;52.006;4.374;2022-07-06T04:58:09;12.70;99.90
17178;DHT22;8704;52.006;4.374;2022-07-06T05:00:37;12.70;99.90
17178;DHT22;8704;52.006;4.374;2022-07-06T05:03:07;12.80;99.90
17178;DHT22;8704;52.006;4.374;2022-07-06T05:05:35;12.90;99.90
17178;DHT22;8704;52.006;4.374;2022-07-06T05:08:03;12.90;99.90
17178;DHT22;8704;52.006;4.374;2022-07-06T05:10:31;12.90;99.90
17178;DHT22;8704;52.006;4.374;2022-07-06T05:12:59;12.90;99.90
17178;DHT22;8704;52.006;4.374;2022-07-06T05:15:27;13.00;99.90
17178;DHT22;8704;52.006;4.374;2022-07-06T05:17:55;13.00;99.90
17178;DHT22;8704;52.006;4.374;2022-07-06T05:20:24;13.10;85.20
17178;DHT22;8704;52.006;4.374;2022-07-06T05:22:52;13.20;22.90
17178;DHT22;8704;52.006;4.374;2022-07-06T05:25:20;13.30;72.40
17178;DHT22;8704;52.006;4.374;2022-07-06T05:27:48;13.30;87.80
17178;DHT22;8704;52.006;4.374;2022-07-06T05:30:16;13.40;91.80
17178;DHT22;8704;52.006;4.374;2022-07-06T05:32:44;13.40;85.00
17178;DHT22;8704;52.006;4.374;2022-07-06T05:35:12;13.50;11.40
17178;DHT22;8704;52.006;4.374;2022-07-06T05:38:01;13.50;32.90
17178;DHT22;8704;52.006;4.374;2022-07-06T05:40:29;13.70;1.00
17178;DHT22;8704;52.006;4.374;2022-07-06T05:42:57;13.80;1.00
17178;DHT22;8704;52.006;4.374;2022-07-06T05:45:25;14.00;1.00
17178;DHT22;8704;52.006;4.374;2022-07-06T05:47:53;14.10;1.00
17178;DHT22;8704;52.006;4.374;2022-07-06T05:50:38;14.10;1.00
17178;DHT22;8704;52.006;4.374;2022-07-06T05:53:08;14.20;1.00
17178;DHT22;8704;52.006;4.374;2022-07-06T05:55:45;14.40;1.00
17178;DHT22;8704;52.006;4.374;2022-07-06T05:58:14;14.40;1.00
17178;DHT22;8704;52.006;4.374;2022-07-06T06:00:42;14.40;1.00
17178;DHT22;8704;52.006;4.374;2022-07-06T06:03:10;14.50;1.00
17178;DHT22;8704;52.006;4.374;2022-07-06T06:05:38;14.70;1.00
17178;DHT22;8704;52.006;4.374;2022-07-06T06:08:08;14.80;99.90
17178;DHT22;8704;52.006;4.374;2022-07-06T06:10:36;14.90;99.90
17178;DHT22;8704;52.006;4.374;2022-07-06T06:13:04;15.00;99.90
17178;DHT22;8704;52.006;4.374;2022-07-06T06:15:32;15.00;99.90
17178;DHT22;8704;52.006;4.374;2022-07-06T06:18:00;15.10;99.90
17178;DHT22;8704;52.006;4.374;2022-07-06T06:20:28;15.30;99.90
17178;DHT22;8704;52.006;4.374;2022-07-06T06:22:57;15.40;99.90
17178;DHT22;8704;52.006;4.374;2022-07-06T06:25:29;15.40;99.90
17178;DHT22;8704;52.006;4.374;2022-07-06T06:27:58;15.50;99.90
17178;DHT22;8704;52.006;4.374;2022-07-06T06:30:26;15.50;42.60
17178;DHT22;8704;52.006;4.374;2022-07-06T06:33:08;15.60;99.90
17178;DHT22;8704;52.006;4.374;2022-07-06T06:35:37;15.70;1.00
17178;DHT22;8704;52.006;4.374;2022-07-06T06:38:05;15.70;99.90
17178;DHT22;8704;52.006;4.374;2022-07-06T06:40:34;15.80;99.90
17178;DHT22;8704;52.006;4.374;2022-07-06T06:43:02;15.80;99.90
17178;DHT22;8704;52.006;4.374;2022-07-06T06:45:30;15.90;1.00
17178;DHT22;8704;52.006;4.374;2022-07-06T06:47:58;16.10;1.00
17178;DHT22;8704;52.006;4.374;2022-07-06T06:50:26;16.20;40.50
17178;DHT22;8704;52.006;4.374;2022-07-06T06:52:54;16.20;1.00
17178;DHT22;8704;52.006;4.374;2022-07-06T06:55:22;16.20;1.00
17178;DHT22;8704;52.006;4.374;2022-07-06T06:57:52;16.20;99.90
17178;DHT22;8704;52.006;4.374;2022-07-06T07:00:20;16.40;1.00
17178;DHT22;8704;52.006;4.374;2022-07-06T07:02:48;16.40;99.90
17178;DHT22;8704;52.006;4.374;2022-07-06T07:05:16;16.50;1.00
17178;DHT22;8704;52.006;4.374;2022-07-06T07:07:44;16.60;1.00
17178;DHT22;8704;52.006;4.374;2022-07-06T07:10:12;16.70;1.00
17178;DHT22;8704;52.006;4.374;2022-07-06T07:12:44;16.70;99.90
17178;DHT22;8704;52.006;4.374;2022-07-06T07:15:13;16.80;99.90
17178;DHT22;8704;52.006;4.374;2022-07-06T07:17:41;16.90;99.90
17178;DHT22;8704;52.006;4.374;2022-07-06T07:20:10;17.00;1.00
17178;DHT22;8704;52.006;4.374;2022-07-06T07:22:38;17.10;1.00
17178;DHT22;8704;52.006;4.374;2022-07-06T07:25:07;17.20;1.00
17178;DHT22;8704;52.006;4.374;2022-07-06T07:27:35;17.20;1.00
17178;DHT22;8704;52.006;4.374;2022-07-06T07:30:03;17.30;1.00
17178;DHT22;8704;52.006;4.374;2022-07-06T07:32:33;17.40;99.90
17178;DHT22;8704;52.006;4.374;2022-07-06T07:35:01;17.50;99.90
17178;DHT22;8704;52.006;4.374;2022-07-06T07:37:29;17.50;99.90
17178;DHT22;8704;52.006;4.374;2022-07-06T07:39:57;17.60;99.90
17178;DHT22;8704;52.006;4.374;2022-07-06T07:42:25;17.70;99.90
17178;DHT22;8704;52.006;4.374;2022-07-06T07:44:53;17.70;99.90
17178;DHT22;8704;52.006;4.374;2022-07-06T07:47:21;17.80;99.90
17178;DHT22;8704;52.006;4.374;2022-07-06T07:49:50;17.90;99.90
17178;DHT22;8704;52.006;4.374;2022-07-06T07:52:18;18.10;92.30
17178;DHT22;8704;52.006;4.374;2022-07-06T07:54:46;18.10;1.00
17178;DHT22;8704;52.006;4.374;2022-07-06T07:57:34;18.20;1.00
17178;DHT22;8704;52.006;4.374;2022-07-06T08:00:03;18.30;1.00
17178;DHT22;8704;52.006;4.374;2022-07-06T08:02:31;18.30;82.40
17178;DHT22;8704;52.006;4.374;2022-07-06T08:05:00;18.40;1.00
17178;DHT22;8704;52.006;4.374;2022-07-06T08:07:28;18.50;1.00
17178;DHT22;8704;52.006;4.374;2022-07-06T08:09:56;18.50;1.00
17178;DHT22;8704;52.006;4.374;2022-07-06T08:12:24;18.60;1.00
17178;DHT22;8704;52.006;4.374;2022-07-06T08:14:52;18.80;1.00
17178;DHT22;8704;52.006;4.374;2022-07-06T08:17:20;18.80;1.00
17178;DHT22;8704;52.006;4.374;2022-07-06T08:19:48;18.90;1.00
17178;DHT22;8704;52.006;4.374;2022-07-06T08:22:17;18.90;1.00
17178;DHT22;8704;52.006;4.374;2022-07-06T08:24:45;19.00;1.00
17178;DHT22;8704;52.006;4.374;2022-07-06T08:27:13;19.20;1.00
17178;DHT22;8704;52.006;4.374;2022-07-06T08:29:41;19.20;1.00
17178;DHT22;8704;52.006;4.374;2022-07-06T08:32:09;19.20;1.00
17178;DHT22;8704;52.006;4.374;2022-07-06T08:34:48;19.30;1.00
17178;DHT22;8704;52.006;4.374;2022-07-06T08:37:17;19.20;1.00
17178;DHT22;8704;52.006;4.374;2022-07-06T08:39:45;19.20;1.00
17178;DHT22;8704;52.006;4.374;2022-07-06T08:42:14;19.30;1.00
17178;DHT22;8704;52.006;4.374;2022-07-06T08:44:43;19.30;1.00
17178;DHT22;8704;52.006;4.374;2022-07-06T08:47:12;19.30;1.00
17178;DHT22;8704;52.006;4.374;2022-07-06T08:49:42;19.40;1.00
17178;DHT22;8704;52.006;4.374;2022-07-06T08:52:11;19.30;1.00
17178;DHT22;8704;52.006;4.374;2022-07-06T08:54:41;19.50;1.00
17178;DHT22;8704;52.006;4.374;2022-07-06T08:57:09;19.60;1.00
17178;DHT22;8704;52.006;4.374;2022-07-06T08:59:38;19.60;1.00
17178;DHT22;8704;52.006;4.374;2022-07-06T09:02:06;19.70;1.00
17178;DHT22;8704;52.006;4.374;2022-07-06T09:04:37;19.60;1.00
17178;DHT22;8704;52.006;4.374;2022-07-06T09:07:07;19.60;1.00
17178;DHT22;8704;52.006;4.374;2022-07-06T09:09:35;19.80;1.00
17178;DHT22;8704;52.006;4.374;2022-07-06T09:12:10;19.80;1.00
17178;DHT22;8704;52.006;4.374;2022-07-06T09:14:39;20.00;1.00
17178;DHT22;8704;52.006;4.374;2022-07-06T09:17:07;20.10;1.00
17178;DHT22;8704;52.006;4.374;2022-07-06T09:19:45;20.20;1.00
17178;DHT22;8704;52.006;4.374;2022-07-06T09:22:25;20.20;1.00
17178;DHT22;8704;52.006;4.374;2022-07-06T09:25:00;20.00;1.00
17178;DHT22;8704;52.006;4.374;2022-07-06T09:27:29;19.90;1.00
17178;DHT22;8704;52.006;4.374;2022-07-06T09:30:00;20.00;1.00
17178;DHT22;8704;52.006;4.374;2022-07-06T09:32:29;20.10;1.00
17178;DHT22;8704;52.006;4.374;2022-07-06T09:34:57;20.20;1.00
17178;DHT22;8704;52.006;4.374;2022-07-06T09:37:29;20.20;1.00
17178;DHT22;8704;52.006;4.374;2022-07-06T09:39:57;20.20;1.00
17178;DHT22;8704;52.006;4.374;2022-07-06T09:42:26;20.30;1.00
17178;DHT22;8704;52.006;4.374;2022-07-06T09:44:55;20.20;1.00
17178;DHT22;8704;52.006;4.374;2022-07-06T09:47:26;20.20;1.00
17178;DHT22;8704;52.006;4.374;2022-07-06T09:49:55;20.20;1.00
17178;DHT22;8704;52.006;4.374;2022-07-06T09:52:24;20.40;1.00
17178;DHT22;8704;52.006;4.374;2022-07-06T09:54:52;20.30;1.00
17178;DHT22;8704;52.006;4.374;2022-07-06T09:57:21;20.50;1.00
17178;DHT22;8704;52.006;4.374;2022-07-06T09:59:50;20.60;1.00
17178;DHT22;8704;52.006;4.374;2022-07-06T10:02:20;20.70;1.00
17178;DHT22;8704;52.006;4.374;2022-07-06T10:04:50;20.80;1.00
17178;DHT22;8704;52.006;4.374;2022-07-06T10:07:22;20.80;1.00
17178;DHT22;8704;52.006;4.374;2022-07-06T10:09:51;20.80;1.00
17178;DHT22;8704;52.006;4.374;2022-07-06T10:12:20;20.90;1.00
17178;DHT22;8704;52.006;4.374;2022-07-06T10:14:48;21.10;1.00
17178;DHT22;8704;52.006;4.374;2022-07-06T10:17:18;21.10;1.00
17178;DHT22;8704;52.006;4.374;2022-07-06T10:19:48;21.10;1.00
17178;DHT22;8704;52.006;4.374;2022-07-06T10:22:19;21.10;1.00
17178;DHT22;8704;52.006;4.374;2022-07-06T10:24:47;21.30;1.00
17178;DHT22;8704;52.006;4.374;2022-07-06T10:27:16;21.40;1.00
17178;DHT22;8704;52.006;4.374;2022-07-06T10:29:44;21.60;1.00
17178;DHT22;8704;52.006;4.374;2022-07-06T10:32:12;21.40;1.00
17178;DHT22;8704;52.006;4.374;2022-07-06T10:34:41;21.50;1.00
17178;DHT22;8704;52.006;4.374;2022-07-06T10:37:21;21.60;1.00
17178;DHT22;8704;52.006;4.374;2022-07-06T10:39:51;21.70;1.00
17178;DHT22;8704;52.006;4.374;2022-07-06T10:42:43;22.00;1.00
17178;DHT22;8704;52.006;4.374;2022-07-06T10:45:13;22.00;1.00
17178;DHT22;8704;52.006;4.374;2022-07-06T10:47:42;22.30;1.00
17178;DHT22;8704;52.006;4.374;2022-07-06T10:50:11;22.30;1.00
17178;DHT22;8704;52.006;4.374;2022-07-06T10:52:51;22.20;1.00
17178;DHT22;8704;52.006;4.374;2022-07-06T10:55:31;22.40;1.00
17178;DHT22;8704;52.006;4.374;2022-07-06T10:57:59;22.60;1.00
17178;DHT22;8704;52.006;4.374;2022-07-06T11:00:47;22.60;1.00
17178;DHT22;8704;52.006;4.374;2022-07-06T11:03:37;22.80;1.00
17178;DHT22;8704;52.006;4.374;2022-07-06T11:06:08;22.70;1.00
17178;DHT22;8704;52.006;4.374;2022-07-06T11:09:00;22.70;1.00
17178;DHT22;8704;52.006;4.374;2022-07-06T11:11:39;23.00;1.00
17178;DHT22;8704;52.006;4.374;2022-07-06T11:14:09;23.10;1.00
17178;DHT22;8704;52.006;4.374;2022-07-06T11:16:40;23.10;1.00
17178;DHT22;8704;52.006;4.374;2022-07-06T11:19:10;23.10;1.00
17178;DHT22;8704;52.006;4.374;2022-07-06T11:21:40;23.50;1.00
17178;DHT22;8704;52.006;4.374;2022-07-06T11:24:11;23.70;1.00
17178;DHT22;8704;52.006;4.374;2022-07-06T11:26:41;23.60;1.00
17178;DHT22;8704;52.006;4.374;2022-07-06T11:29:10;23.70;1.00
17178;DHT22;8704;52.006;4.374;2022-07-06T11:31:39;23.60;1.00
17178;DHT22;8704;52.006;4.374;2022-07-06T11:34:09;23.40;1.00
17178;DHT22;8704;52.006;4.374;2022-07-06T11:36:38;23.40;1.00
17178;DHT22;8704;52.006;4.374;2022-07-06T11:39:13;23.40;1.00
17178;DHT22;8704;52.006;4.374;2022-07-06T11:41:42;23.40;1.00
17178;DHT22;8704;52.006;4.374;2022-07-06T11:44:17;23.50;1.00
17178;DHT22;8704;52.006;4.374;2022-07-06T11:46:45;23.60;1.00
17178;DHT22;8704;52.006;4.374;2022-07-06T11:49:13;23.70;1.00
17178;DHT22;8704;52.006;4.374;2022-07-06T11:51:41;23.80;1.00
17178;DHT22;8704;52.006;4.374;2022-07-06T11:54:13;23.70;1.00
17178;DHT22;8704;52.006;4.374;2022-07-06T11:56:45;23.70;1.00
17178;DHT22;8704;52.006;4.374;2022-07-06T11:59:14;23.60;1.00
17178;DHT22;8704;52.006;4.374;2022-07-06T12:01:43;23.60;1.00
17178;DHT22;8704;52.006;4.374;2022-07-06T12:04:11;23.80;1.00
17178;DHT22;8704;52.006;4.374;2022-07-06T12:06:39;23.80;1.00
17178;DHT22;8704;52.006;4.374;2022-07-06T12:09:10;23.60;1.00
17178;DHT22;8704;52.006;4.374;2022-07-06T12:11:39;23.50;1.00
17178;DHT22;8704;52.006;4.374;2022-07-06T12:14:15;23.40;1.00
17178;DHT22;8704;52.006;4.374;2022-07-06T12:16:45;23.70;1.00
17178;DHT22;8704;52.006;4.374;2022-07-06T12:19:13;23.80;1.00
17178;DHT22;8704;52.006;4.374;2022-07-06T12:21:47;23.50;1.00
17178;DHT22;8704;52.006;4.374;2022-07-06T12:24:20;23.30;1.00
17178;DHT22;8704;52.006;4.374;2022-07-06T12:26:50;23.40;1.00
17178;DHT22;8704;52.006;4.374;2022-07-06T12:29:18;23.60;1.00
17178;DHT22;8704;52.006;4.374;2022-07-06T12:31:50;23.70;1.00
17178;DHT22;8704;52.006;4.374;2022-07-06T12:34:20;23.30;1.00
17178;DHT22;8704;52.006;4.374;2022-07-06T12:36:50;23.50;1.00
17178;DHT22;8704;52.006;4.374;2022-07-06T12:39:20;23.80;1.00
17178;DHT22;8704;52.006;4.374;2022-07-06T12:41:50;23.80;1.00
17178;DHT22;8704;52.006;4.374;2022-07-06T12:44:20;24.00;1.00
17178;DHT22;8704;52.006;4.374;2022-07-06T12:46:49;24.20;1.00
17178;DHT22;8704;52.006;4.374;2022-07-06T12:49:22;24.10;1.00
17178;DHT22;8704;52.006;4.374;2022-07-06T12:51:58;24.20;1.00
17178;DHT22;8704;52.006;4.374;2022-07-06T12:54:29;24.60;1.00
17178;DHT22;8704;52.006;4.374;2022-07-06T12:57:07;24.70;1.00
17178;DHT22;8704;52.006;4.374;2022-07-06T12:59:37;24.60;1.00
17178;DHT22;8704;52.006;4.374;2022-07-06T13:02:08;24.70;1.00
17178;DHT22;8704;52.006;4.374;2022-07-06T13:04:37;24.50;1.00
17178;DHT22;8704;52.006;4.374;2022-07-06T13:07:05;24.50;1.00
17178;DHT22;8704;52.006;4.374;2022-07-06T13:09:34;24.70;1.00
17178;DHT22;8704;52.006;4.374;2022-07-06T13:12:05;24.70;1.00
17178;DHT22;8704;52.006;4.374;2022-07-06T13:14:33;24.50;1.00
17178;DHT22;8704;52.006;4.374;2022-07-06T13:17:01;24.70;1.00
17178;DHT22;8704;52.006;4.374;2022-07-06T13:19:31;24.30;1.00
17178;DHT22;8704;52.006;4.374;2022-07-06T13:21:59;24.40;1.00
17178;DHT22;8704;52.006;4.374;2022-07-06T13:24:27;24.40;1.00
17178;DHT22;8704;52.006;4.374;2022-07-06T13:26:55;24.40;1.00
17178;DHT22;8704;52.006;4.374;2022-07-06T13:29:25;24.30;1.00
17178;DHT22;8704;52.006;4.374;2022-07-06T13:31:53;24.30;1.00
17178;DHT22;8704;52.006;4.374;2022-07-06T13:34:21;24.40;1.00
17178;DHT22;8704;52.006;4.374;2022-07-06T13:36:50;24.50;1.00
17178;DHT22;8704;52.006;4.374;2022-07-06T13:39:20;24.50;1.00
17178;DHT22;8704;52.006;4.374;2022-07-06T13:41:48;24.30;1.00
17178;DHT22;8704;52.006;4.374;2022-07-06T13:44:16;24.20;1.00
17178;DHT22;8704;52.006;4.374;2022-07-06T13:46:45;24.20;1.00
17178;DHT22;8704;52.006;4.374;2022-07-06T13:49:16;24.10;1.00
17178;DHT22;8704;52.006;4.374;2022-07-06T13:51:44;23.60;1.00
17178;DHT22;8704;52.006;4.374;2022-07-06T13:54:12;23.60;1.00
17178;DHT22;8704;52.006;4.374;2022-07-06T13:56:40;23.70;1.00
17178;DHT22;8704;52.006;4.374;2022-07-06T13:59:08;23.60;1.00
17178;DHT22;8704;52.006;4.374;2022-07-06T14:01:36;23.50;1.00
17178;DHT22;8704;52.006;4.374;2022-07-06T14:04:06;23.50;1.00
17178;DHT22;8704;52.006;4.374;2022-07-06T14:06:34;23.50;1.00
17178;DHT22;8704;52.006;4.374;2022-07-06T14:09:03;23.50;1.00
17178;DHT22;8704;52.006;4.374;2022-07-06T14:11:31;23.60;1.00
17178;DHT22;8704;52.006;4.374;2022-07-06T14:13:59;23.70;1.00
17178;DHT22;8704;52.006;4.374;2022-07-06T14:16:27;23.80;1.00
17178;DHT22;8704;52.006;4.374;2022-07-06T14:18:56;24.10;1.00
17178;DHT22;8704;52.006;4.374;2022-07-06T14:21:29;24.10;1.00
17178;DHT22;8704;52.006;4.374;2022-07-06T14:23:57;24.00;1.00
17178;DHT22;8704;52.006;4.374;2022-07-06T14:26:25;23.80;1.00
17178;DHT22;8704;52.006;4.374;2022-07-06T14:28:53;23.70;1.00
17178;DHT22;8704;52.006;4.374;2022-07-06T14:31:21;23.50;1.00
17178;DHT22;8704;52.006;4.374;2022-07-06T14:33:49;23.30;1.00
17178;DHT22;8704;52.006;4.374;2022-07-06T14:36:18;23.30;1.00
17178;DHT22;8704;52.006;4.374;2022-07-06T14:38:47;23.40;1.00
17178;DHT22;8704;52.006;4.374;2022-07-06T14:41:15;23.90;1.00
17178;DHT22;8704;52.006;4.374;2022-07-06T14:43:43;23.80;1.00
17178;DHT22;8704;52.006;4.374;2022-07-06T14:46:11;23.90;1.00
17178;DHT22;8704;52.006;4.374;2022-07-06T14:48:39;24.00;1.00
17178;DHT22;8704;52.006;4.374;2022-07-06T14:51:07;24.20;1.00
17178;DHT22;8704;52.006;4.374;2022-07-06T14:53:38;24.40;1.00
17178;DHT22;8704;52.006;4.374;2022-07-06T14:56:07;24.30;1.00
17178;DHT22;8704;52.006;4.374;2022-07-06T14:58:35;24.10;1.00
17178;DHT22;8704;52.006;4.374;2022-07-06T15:01:18;24.00;1.00
17178;DHT22;8704;52.006;4.374;2022-07-06T15:03:46;23.90;1.00
17178;DHT22;8704;52.006;4.374;2022-07-06T15:06:16;23.80;1.00
17178;DHT22;8704;52.006;4.374;2022-07-06T15:09:04;23.80;1.00
17178;DHT22;8704;52.006;4.374;2022-07-06T15:11:33;23.90;1.00
17178;DHT22;8704;52.006;4.374;2022-07-06T15:14:01;23.80;1.00
17178;DHT22;8704;52.006;4.374;2022-07-06T15:16:29;23.70;1.00
17178;DHT22;8704;52.006;4.374;2022-07-06T15:18:57;23.70;1.00
17178;DHT22;8704;52.006;4.374;2022-07-06T15:21:25;23.60;1.00
17178;DHT22;8704;52.006;4.374;2022-07-06T15:23:53;23.80;1.00
17178;DHT22;8704;52.006;4.374;2022-07-06T15:26:22;23.70;1.00
17178;DHT22;8704;52.006;4.374;2022-07-06T15:28:52;23.80;1.00
17178;DHT22;8704;52.006;4.374;2022-07-06T15:31:20;23.70;1.00
17178;DHT22;8704;52.006;4.374;2022-07-06T15:33:48;23.70;1.00
17178;DHT22;8704;52.006;4.374;2022-07-06T15:36:17;23.80;1.00
17178;DHT22;8704;52.006;4.374;2022-07-06T15:38:45;23.80;1.00
17178;DHT22;8704;52.006;4.374;2022-07-06T15:41:13;23.60;1.00
17178;DHT22;8704;52.006;4.374;2022-07-06T15:43:41;23.40;1.00
17178;DHT22;8704;52.006;4.374;2022-07-06T15:46:11;23.30;1.00
17178;DHT22;8704;52.006;4.374;2022-07-06T15:48:39;23.40;1.00
17178;DHT22;8704;52.006;4.374;2022-07-06T15:51:07;23.40;1.00
17178;DHT22;8704;52.006;4.374;2022-07-06T15:53:36;23.50;1.00
17178;DHT22;8704;52.006;4.374;2022-07-06T15:56:04;22.80;1.00
17178;DHT22;8704;52.006;4.374;2022-07-06T15:58:32;22.80;1.00
17178;DHT22;8704;52.006;4.374;2022-07-06T16:01:00;22.70;1.00
17178;DHT22;8704;52.006;4.374;2022-07-06T16:03:29;22.30;1.00
17178;DHT22;8704;52.006;4.374;2022-07-06T16:05:57;22.40;1.00
17178;DHT22;8704;52.006;4.374;2022-07-06T16:08:36;22.30;1.00
17178;DHT22;8704;52.006;4.374;2022-07-06T16:11:12;22.40;1.00